createdAt,value
2023-08-11T00:00:42.000Z,19.75
2023-08-11T00:01:40.000Z,19.72
2023-08-11T00:02:39.000Z,19.73
2023-08-11T00:03:39.000Z,19.72
2023-08-11T00:04:39.000Z,19.70
2023-08-11T00:05:39.000Z,19.68
2023-08-11T00:06:39.000Z,19.67
2023-08-11T00:07:40.000Z,19.67
2023-08-11T00:08:39.000Z,19.64
2023-08-11T00:09:40.000Z,19.65
2023-08-11T00:10:40.000Z,19.66
2023-08-11T00:11:40.000Z,19.65
2023-08-11T00:12:39.000Z,19.62
2023-08-11T00:13:40.000Z,19.61
2023-08-11T00:14:40.000Z,19.60
2023-08-11T00:15:40.000Z,19.59
2023-08-11T00:16:39.000Z,19.59
2023-08-11T00:17:40.000Z,19.59
2023-08-11T00:18:39.000Z,19.58
2023-08-11T00:19:40.000Z,19.55
2023-08-11T00:20:41.000Z,19.54
2023-08-11T00:21:41.000Z,19.53
2023-08-11T00:22:40.000Z,19.53
2023-08-11T00:23:42.000Z,19.53
2023-08-11T00:24:40.000Z,19.50
2023-08-11T00:25:40.000Z,19.51
2023-08-11T00:26:40.000Z,19.51
2023-08-11T00:27:40.000Z,19.48
2023-08-11T00:28:40.000Z,19.48
2023-08-11T00:29:40.000Z,19.47
2023-08-11T00:30:40.000Z,19.46
2023-08-11T00:31:40.000Z,19.44
2023-08-11T00:32:40.000Z,19.42
2023-08-11T00:33:46.000Z,19.42
2023-08-11T00:34:40.000Z,19.40
2023-08-11T00:35:40.000Z,19.37
2023-08-11T00:36:41.000Z,19.38
2023-08-11T00:37:40.000Z,19.36
2023-08-11T00:38:40.000Z,19.34
2023-08-11T00:39:40.000Z,19.31
2023-08-11T00:40:40.000Z,19.30
2023-08-11T00:41:40.000Z,19.30
2023-08-11T00:42:40.000Z,19.28
2023-08-11T00:43:40.000Z,19.28
2023-08-11T00:44:41.000Z,19.25
2023-08-11T00:45:44.000Z,19.24
2023-08-11T00:46:43.000Z,19.24
2023-08-11T00:47:44.000Z,19.22
2023-08-11T00:48:41.000Z,19.21
2023-08-11T00:49:41.000Z,19.16
2023-08-11T00:50:40.000Z,19.19
2023-08-11T00:51:41.000Z,19.15
2023-08-11T00:52:40.000Z,19.16
2023-08-11T00:53:40.000Z,19.15
2023-08-11T00:54:41.000Z,19.13
2023-08-11T00:55:40.000Z,19.10
2023-08-11T00:56:43.000Z,19.04
2023-08-11T00:57:40.000Z,19.06
2023-08-11T00:58:42.000Z,19.05
2023-08-11T00:59:40.000Z,19.04
2023-08-11T01:00:40.000Z,19.04
2023-08-11T01:01:40.000Z,19.04
2023-08-11T01:02:43.000Z,19.04
2023-08-11T01:03:42.000Z,19.03
2023-08-11T01:04:40.000Z,19.03
2023-08-11T01:05:52.000Z,19.01
2023-08-11T01:06:44.000Z,19.04
2023-08-11T01:08:06.000Z,19.03
2023-08-11T01:08:55.000Z,19.03
2023-08-11T01:09:50.000Z,19.01
2023-08-11T01:10:50.000Z,18.96
2023-08-11T01:11:47.000Z,18.95
2023-08-11T01:13:07.000Z,18.91
2023-08-11T01:13:47.000Z,18.88
2023-08-11T01:14:55.000Z,18.87
2023-08-11T01:15:46.000Z,18.86
2023-08-11T01:16:40.000Z,18.85
2023-08-11T01:17:41.000Z,18.82
2023-08-11T01:18:40.000Z,18.80
2023-08-11T01:19:40.000Z,18.78
2023-08-11T01:20:41.000Z,18.77
2023-08-11T01:21:40.000Z,18.75
2023-08-11T01:22:43.000Z,18.70
2023-08-11T01:23:40.000Z,18.71
2023-08-11T01:24:44.000Z,18.70
2023-08-11T01:25:40.000Z,18.63
2023-08-11T01:26:39.000Z,18.60
2023-08-11T01:27:45.000Z,18.55
2023-08-11T01:28:40.000Z,18.53
2023-08-11T01:29:39.000Z,18.51
2023-08-11T01:30:39.000Z,18.51
2023-08-11T01:31:39.000Z,18.51
2023-08-11T01:32:39.000Z,18.50
2023-08-11T01:33:39.000Z,18.47
2023-08-11T01:34:39.000Z,18.46
2023-08-11T01:35:39.000Z,18.45
2023-08-11T01:36:40.000Z,18.44
2023-08-11T01:37:39.000Z,18.43
2023-08-11T01:38:39.000Z,18.43
2023-08-11T01:39:39.000Z,18.43
2023-08-11T01:40:40.000Z,18.43
2023-08-11T01:41:40.000Z,18.43
2023-08-11T01:42:41.000Z,18.42
2023-08-11T01:43:40.000Z,18.43
2023-08-11T01:44:40.000Z,18.40
2023-08-11T01:45:41.000Z,18.40
2023-08-11T01:46:41.000Z,18.34
2023-08-11T01:47:44.000Z,18.30
2023-08-11T01:48:40.000Z,18.29
2023-08-11T01:49:41.000Z,18.29
2023-08-11T01:50:40.000Z,18.28
2023-08-11T01:51:39.000Z,18.29
2023-08-11T01:52:45.000Z,18.30
2023-08-11T01:53:40.000Z,18.29
2023-08-11T01:54:43.000Z,18.25
2023-08-11T01:55:41.000Z,18.23
2023-08-11T01:56:41.000Z,18.19
2023-08-11T01:57:40.000Z,18.17
2023-08-11T01:58:39.000Z,18.16
2023-08-11T01:59:40.000Z,18.15
2023-08-11T02:00:40.000Z,18.11
2023-08-11T02:01:40.000Z,18.13
2023-08-11T02:02:39.000Z,18.12
2023-08-11T02:03:40.000Z,18.12
2023-08-11T02:04:39.000Z,18.12
2023-08-11T02:05:40.000Z,18.15
2023-08-11T02:06:39.000Z,18.13
2023-08-11T02:07:41.000Z,18.10
2023-08-11T02:08:40.000Z,18.05
2023-08-11T02:09:40.000Z,18.05
2023-08-11T02:10:39.000Z,18.04
2023-08-11T02:11:39.000Z,18.04
2023-08-11T02:12:40.000Z,18.02
2023-08-11T02:13:39.000Z,18.01
2023-08-11T02:14:39.000Z,18.01
2023-08-11T02:15:39.000Z,18.03
2023-08-11T02:16:40.000Z,18.01
2023-08-11T02:17:40.000Z,18.01
2023-08-11T02:18:40.000Z,18.04
2023-08-11T02:19:39.000Z,18.04
2023-08-11T02:20:40.000Z,18.03
2023-08-11T02:21:40.000Z,18.02
2023-08-11T02:22:39.000Z,18.04
2023-08-11T02:23:39.000Z,18.04
2023-08-11T02:24:39.000Z,18.03
2023-08-11T02:25:39.000Z,18.03
2023-08-11T02:26:40.000Z,18.00
2023-08-11T02:27:40.000Z,18.03
2023-08-11T02:28:40.000Z,17.99
2023-08-11T02:29:39.000Z,17.99
2023-08-11T02:30:40.000Z,17.98
2023-08-11T02:31:39.000Z,17.99
2023-08-11T02:32:40.000Z,18.00
2023-08-11T02:33:39.000Z,17.98
2023-08-11T02:34:40.000Z,17.98
2023-08-11T02:35:39.000Z,17.98
2023-08-11T02:36:39.000Z,17.97
2023-08-11T02:37:40.000Z,17.97
2023-08-11T02:38:40.000Z,17.96
2023-08-11T02:39:39.000Z,17.96
2023-08-11T02:40:39.000Z,17.96
2023-08-11T02:41:40.000Z,17.96
2023-08-11T02:42:57.000Z,17.95
2023-08-11T02:43:39.000Z,17.95
2023-08-11T02:44:39.000Z,17.93
2023-08-11T02:45:40.000Z,17.94
2023-08-11T02:46:40.000Z,17.92
2023-08-11T02:47:40.000Z,17.90
2023-08-11T02:48:39.000Z,17.87
2023-08-11T02:49:39.000Z,17.86
2023-08-11T02:50:39.000Z,17.86
2023-08-11T02:51:39.000Z,17.84
2023-08-11T02:52:39.000Z,17.83
2023-08-11T02:53:40.000Z,17.83
2023-08-11T02:54:39.000Z,17.83
2023-08-11T02:55:40.000Z,17.79
2023-08-11T02:56:45.000Z,17.82
2023-08-11T02:57:40.000Z,17.79
2023-08-11T02:58:42.000Z,17.77
2023-08-11T02:59:39.000Z,17.78
2023-08-11T03:00:40.000Z,17.74
2023-08-11T03:01:39.000Z,17.76
2023-08-11T03:02:41.000Z,17.72
2023-08-11T03:03:42.000Z,17.72
2023-08-11T03:04:39.000Z,17.66
2023-08-11T03:05:42.000Z,17.65
2023-08-11T03:06:40.000Z,17.65
2023-08-11T03:07:41.000Z,17.63
2023-08-11T03:08:40.000Z,17.63
2023-08-11T03:09:39.000Z,17.63
2023-08-11T03:10:40.000Z,17.63
2023-08-11T03:11:40.000Z,17.62
2023-08-11T03:12:40.000Z,17.60
2023-08-11T03:13:40.000Z,17.59
2023-08-11T03:14:41.000Z,17.58
2023-08-11T03:15:40.000Z,17.59
2023-08-11T03:16:39.000Z,17.59
2023-08-11T03:17:40.000Z,17.58
2023-08-11T03:18:39.000Z,17.58
2023-08-11T03:19:40.000Z,17.58
2023-08-11T03:20:40.000Z,17.57
2023-08-11T03:21:39.000Z,17.57
2023-08-11T03:22:41.000Z,17.57
2023-08-11T03:23:40.000Z,17.56
2023-08-11T03:24:40.000Z,17.54
2023-08-11T03:25:40.000Z,17.53
2023-08-11T03:26:40.000Z,17.53
2023-08-11T03:27:41.000Z,17.52
2023-08-11T03:28:40.000Z,17.51
2023-08-11T03:29:40.000Z,17.51
2023-08-11T03:30:40.000Z,17.48
2023-08-11T03:31:40.000Z,17.48
2023-08-11T03:32:40.000Z,17.50
2023-08-11T03:33:40.000Z,17.50
2023-08-11T03:34:41.000Z,17.50
2023-08-11T03:35:40.000Z,17.49
2023-08-11T03:36:40.000Z,17.49
2023-08-11T03:37:40.000Z,17.47
2023-08-11T03:38:40.000Z,17.48
2023-08-11T03:39:41.000Z,17.46
2023-08-11T03:40:40.000Z,17.49
2023-08-11T03:41:40.000Z,17.49
2023-08-11T03:42:42.000Z,17.45
2023-08-11T03:43:40.000Z,17.45
2023-08-11T03:44:40.000Z,17.45
2023-08-11T03:45:40.000Z,17.45
2023-08-11T03:46:40.000Z,17.45
2023-08-11T03:47:42.000Z,17.45
2023-08-11T03:48:41.000Z,17.43
2023-08-11T03:49:40.000Z,17.41
2023-08-11T03:50:40.000Z,17.44
2023-08-11T03:51:41.000Z,17.43
2023-08-11T03:52:40.000Z,17.43
2023-08-11T03:53:40.000Z,17.43
2023-08-11T03:54:39.000Z,17.40
2023-08-11T03:55:42.000Z,17.39
2023-08-11T03:56:39.000Z,17.39
2023-08-11T03:57:39.000Z,17.39
2023-08-11T03:58:40.000Z,17.38
2023-08-11T03:59:39.000Z,17.36
2023-08-11T04:00:39.000Z,17.36
2023-08-11T04:01:39.000Z,17.34
2023-08-11T04:02:43.000Z,17.31
2023-08-11T04:03:39.000Z,17.23
2023-08-11T04:04:39.000Z,16.99
2023-08-11T04:05:40.000Z,17.04
2023-08-11T04:06:39.000Z,17.06
2023-08-11T04:07:39.000Z,17.04
2023-08-11T04:08:40.000Z,17.05
2023-08-11T04:09:43.000Z,17.04
2023-08-11T04:10:39.000Z,17.03
2023-08-11T04:11:40.000Z,17.06
2023-08-11T04:12:39.000Z,17.05
2023-08-11T04:13:39.000Z,17.03
2023-08-11T04:14:39.000Z,17.01
2023-08-11T04:15:39.000Z,17.03
2023-08-11T04:16:39.000Z,17.04
2023-08-11T04:17:40.000Z,17.05
2023-08-11T04:18:39.000Z,17.04
2023-08-11T04:19:41.000Z,17.04
2023-08-11T04:20:40.000Z,17.04
2023-08-11T04:21:40.000Z,17.05
2023-08-11T04:22:40.000Z,17.07
2023-08-11T04:23:39.000Z,17.05
2023-08-11T04:24:40.000Z,17.05
2023-08-11T04:25:40.000Z,17.04
2023-08-11T04:26:40.000Z,17.05
2023-08-11T04:27:40.000Z,17.06
2023-08-11T04:28:43.000Z,17.04
2023-08-11T04:29:40.000Z,17.04
2023-08-11T04:30:40.000Z,17.06
2023-08-11T04:31:40.000Z,17.05
2023-08-11T04:32:41.000Z,17.02
2023-08-11T04:33:41.000Z,16.96
2023-08-11T04:34:40.000Z,16.92
2023-08-11T04:35:40.000Z,16.91
2023-08-11T04:36:40.000Z,16.92
2023-08-11T04:37:41.000Z,16.92
2023-08-11T04:38:40.000Z,16.93
2023-08-11T04:39:40.000Z,16.93
2023-08-11T04:40:40.000Z,16.93
2023-08-11T04:41:40.000Z,16.92
2023-08-11T04:42:40.000Z,16.93
2023-08-11T04:43:40.000Z,16.93
2023-08-11T04:44:40.000Z,16.91
2023-08-11T04:45:40.000Z,16.92
2023-08-11T04:46:40.000Z,16.91
2023-08-11T04:47:40.000Z,16.91
2023-08-11T04:48:40.000Z,16.92
2023-08-11T04:49:40.000Z,16.91
2023-08-11T04:50:40.000Z,16.94
2023-08-11T04:51:40.000Z,16.93
2023-08-11T04:52:40.000Z,16.92
2023-08-11T04:53:40.000Z,16.95
2023-08-11T04:54:40.000Z,16.95
2023-08-11T04:55:40.000Z,16.95
2023-08-11T04:56:39.000Z,16.97
2023-08-11T04:57:39.000Z,16.96
2023-08-11T04:58:39.000Z,16.96
2023-08-11T04:59:40.000Z,16.96
2023-08-11T05:00:39.000Z,16.96
2023-08-11T05:01:39.000Z,16.96
2023-08-11T05:02:42.000Z,16.99
2023-08-11T05:03:39.000Z,17.01
2023-08-11T05:04:39.000Z,17.03
2023-08-11T05:05:40.000Z,17.07
2023-08-11T05:06:39.000Z,17.07
2023-08-11T05:07:39.000Z,17.12
2023-08-11T05:08:39.000Z,17.13
2023-08-11T05:09:40.000Z,17.15
2023-08-11T05:10:39.000Z,17.16
2023-08-11T05:11:39.000Z,17.19
2023-08-11T05:12:40.000Z,17.18
2023-08-11T05:13:39.000Z,17.19
2023-08-11T05:14:39.000Z,17.19
2023-08-11T05:15:40.000Z,17.19
2023-08-11T05:16:39.000Z,17.20
2023-08-11T05:17:39.000Z,17.22
2023-08-11T05:18:39.000Z,17.23
2023-08-11T05:19:39.000Z,17.24
2023-08-11T05:20:39.000Z,17.27
2023-08-11T05:21:39.000Z,17.28
2023-08-11T05:22:39.000Z,17.29
2023-08-11T05:23:39.000Z,17.30
2023-08-11T05:24:39.000Z,17.35
2023-08-11T05:25:40.000Z,17.37
2023-08-11T05:26:39.000Z,17.40
2023-08-11T05:27:39.000Z,17.42
2023-08-11T05:28:40.000Z,17.42
2023-08-11T05:29:41.000Z,17.46
2023-08-11T05:30:39.000Z,17.47
2023-08-11T05:31:39.000Z,17.49
2023-08-11T05:32:39.000Z,17.49
2023-08-11T05:33:40.000Z,17.48
2023-08-11T05:34:39.000Z,17.44
2023-08-11T05:35:39.000Z,17.46
2023-08-11T05:36:39.000Z,17.47
2023-08-11T05:37:40.000Z,17.46
2023-08-11T05:38:39.000Z,17.45
2023-08-11T05:39:41.000Z,17.39
2023-08-11T05:40:41.000Z,17.40
2023-08-11T05:41:40.000Z,17.42
2023-08-11T05:42:39.000Z,17.41
2023-08-11T05:43:39.000Z,17.42
2023-08-11T05:44:39.000Z,17.43
2023-08-11T05:45:39.000Z,17.44
2023-08-11T05:46:40.000Z,17.46
2023-08-11T05:47:39.000Z,17.45
2023-08-11T05:48:39.000Z,17.45
2023-08-11T05:49:39.000Z,17.46
2023-08-11T05:50:43.000Z,17.46
2023-08-11T05:51:39.000Z,17.48
2023-08-11T05:52:39.000Z,17.48
2023-08-11T05:53:39.000Z,17.45
2023-08-11T05:54:39.000Z,17.49
2023-08-11T05:55:39.000Z,17.50
2023-08-11T05:56:39.000Z,17.53
2023-08-11T05:57:39.000Z,17.55
2023-08-11T05:58:40.000Z,17.57
2023-08-11T05:59:39.000Z,17.61
2023-08-11T06:00:39.000Z,17.63
2023-08-11T06:01:39.000Z,17.67
2023-08-11T06:02:40.000Z,17.70
2023-08-11T06:03:39.000Z,17.74
2023-08-11T06:04:40.000Z,17.75
2023-08-11T06:05:40.000Z,17.77
2023-08-11T06:06:40.000Z,17.81
2023-08-11T06:07:40.000Z,17.83
2023-08-11T06:08:39.000Z,17.86
2023-08-11T06:09:40.000Z,17.88
2023-08-11T06:10:40.000Z,17.90
2023-08-11T06:11:39.000Z,17.94
2023-08-11T06:12:40.000Z,17.99
2023-08-11T06:13:40.000Z,18.01
2023-08-11T06:14:39.000Z,18.04
2023-08-11T06:15:39.000Z,18.07
2023-08-11T06:16:39.000Z,18.10
2023-08-11T06:17:40.000Z,18.12
2023-08-11T06:18:39.000Z,18.17
2023-08-11T06:19:39.000Z,18.19
2023-08-11T06:20:40.000Z,18.24
2023-08-11T06:21:39.000Z,18.25
2023-08-11T06:22:39.000Z,18.29
2023-08-11T06:23:39.000Z,18.32
2023-08-11T06:24:40.000Z,18.36
2023-08-11T06:25:40.000Z,18.40
2023-08-11T06:26:40.000Z,18.42
2023-08-11T06:27:39.000Z,18.44
2023-08-11T06:28:41.000Z,18.49
2023-08-11T06:29:40.000Z,18.51
2023-08-11T06:30:40.000Z,18.55
2023-08-11T06:31:42.000Z,18.60
2023-08-11T06:32:39.000Z,18.62
2023-08-11T06:33:39.000Z,18.65
2023-08-11T06:34:40.000Z,18.66
2023-08-11T06:35:40.000Z,18.70
2023-08-11T06:36:39.000Z,18.74
2023-08-11T06:37:40.000Z,18.78
2023-08-11T06:38:40.000Z,18.83
2023-08-11T06:39:40.000Z,18.85
2023-08-11T06:40:39.000Z,18.86
2023-08-11T06:41:40.000Z,18.90
2023-08-11T06:42:39.000Z,18.94
2023-08-11T06:43:41.000Z,18.95
2023-08-11T06:44:39.000Z,18.98
2023-08-11T06:45:41.000Z,19.02
2023-08-11T06:46:40.000Z,19.03
2023-08-11T06:47:40.000Z,19.08
2023-08-11T06:48:40.000Z,19.10
2023-08-11T06:49:39.000Z,19.12
2023-08-11T06:50:40.000Z,19.19
2023-08-11T06:51:39.000Z,19.21
2023-08-11T06:52:40.000Z,19.24
2023-08-11T06:53:39.000Z,19.24
2023-08-11T06:54:40.000Z,19.27
2023-08-11T06:55:39.000Z,19.29
2023-08-11T06:56:39.000Z,19.32
2023-08-11T06:57:40.000Z,19.35
2023-08-11T06:58:39.000Z,19.36
2023-08-11T06:59:40.000Z,19.41
2023-08-11T07:00:39.000Z,19.42
2023-08-11T07:01:39.000Z,19.47
2023-08-11T07:02:39.000Z,19.48
2023-08-11T07:03:40.000Z,19.49
2023-08-11T07:04:39.000Z,19.54
2023-08-11T07:05:39.000Z,19.55
2023-08-11T07:06:39.000Z,19.60
2023-08-11T07:07:40.000Z,19.60
2023-08-11T07:08:40.000Z,19.65
2023-08-11T07:09:39.000Z,19.66
2023-08-11T07:10:39.000Z,19.68
2023-08-11T07:11:39.000Z,19.72
2023-08-11T07:12:39.000Z,19.72
2023-08-11T07:13:40.000Z,19.78
2023-08-11T07:14:41.000Z,19.78
2023-08-11T07:15:42.000Z,19.79
2023-08-11T07:16:39.000Z,19.82
2023-08-11T07:17:39.000Z,19.80
2023-08-11T07:18:39.000Z,19.85
2023-08-11T07:19:39.000Z,19.85
2023-08-11T07:20:43.000Z,19.87
2023-08-11T07:21:39.000Z,19.91
2023-08-11T07:22:40.000Z,19.93
2023-08-11T07:23:39.000Z,19.94
2023-08-11T07:24:39.000Z,19.99
2023-08-11T07:25:40.000Z,20.03
2023-08-11T07:26:39.000Z,20.05
2023-08-11T07:27:39.000Z,20.09
2023-08-11T07:28:40.000Z,20.13
2023-08-11T07:29:39.000Z,20.16
2023-08-11T07:30:39.000Z,20.19
2023-08-11T07:31:39.000Z,20.24
2023-08-11T07:32:41.000Z,20.27
2023-08-11T07:33:42.000Z,20.30
2023-08-11T07:34:40.000Z,20.29
2023-08-11T07:35:39.000Z,20.31
2023-08-11T07:36:40.000Z,20.31
2023-08-11T07:37:39.000Z,20.34
2023-08-11T07:38:39.000Z,20.30
2023-08-11T07:39:39.000Z,20.29
2023-08-11T07:40:40.000Z,20.32
2023-08-11T07:41:40.000Z,20.30
2023-08-11T07:42:39.000Z,20.34
2023-08-11T07:43:39.000Z,20.35
2023-08-11T07:44:39.000Z,20.39
2023-08-11T07:45:39.000Z,20.39
2023-08-11T07:46:40.000Z,20.43
2023-08-11T07:47:39.000Z,20.47
2023-08-11T07:48:39.000Z,20.49
2023-08-11T07:49:40.000Z,20.55
2023-08-11T07:50:39.000Z,20.59
2023-08-11T07:51:40.000Z,20.65
2023-08-11T07:52:39.000Z,20.70
2023-08-11T07:53:39.000Z,20.74
2023-08-11T07:54:40.000Z,20.78
2023-08-11T07:55:40.000Z,20.83
2023-08-11T07:56:39.000Z,20.86
2023-08-11T07:57:40.000Z,20.85
2023-08-11T07:58:40.000Z,20.90
2023-08-11T07:59:39.000Z,20.93
2023-08-11T08:00:39.000Z,20.96
2023-08-11T08:01:41.000Z,21.01
2023-08-11T08:02:39.000Z,21.06
2023-08-11T08:03:40.000Z,21.10
2023-08-11T08:04:39.000Z,21.01
2023-08-11T08:05:39.000Z,20.92
2023-08-11T08:06:44.000Z,20.92
2023-08-11T08:07:39.000Z,20.96
2023-08-11T08:08:39.000Z,21.01
2023-08-11T08:09:39.000Z,21.04
2023-08-11T08:10:39.000Z,21.11
2023-08-11T08:11:41.000Z,21.15
2023-08-11T08:12:42.000Z,21.21
2023-08-11T08:13:39.000Z,21.26
2023-08-11T08:14:39.000Z,21.31
2023-08-11T08:15:39.000Z,21.35
2023-08-11T08:16:44.000Z,21.38
2023-08-11T08:17:39.000Z,21.46
2023-08-11T08:18:39.000Z,21.48
2023-08-11T08:19:39.000Z,21.53
2023-08-11T08:20:39.000Z,21.58
2023-08-11T08:21:40.000Z,21.63
2023-08-11T08:22:40.000Z,21.67
2023-08-11T08:23:39.000Z,21.68
2023-08-11T08:24:39.000Z,21.71
2023-08-11T08:25:39.000Z,21.73
2023-08-11T08:26:40.000Z,21.75
2023-08-11T08:27:40.000Z,21.79
2023-08-11T08:28:39.000Z,21.82
2023-08-11T08:29:39.000Z,21.86
2023-08-11T08:30:40.000Z,21.92
2023-08-11T08:31:40.000Z,21.95
2023-08-11T08:32:41.000Z,21.94
2023-08-11T08:33:40.000Z,21.91
2023-08-11T08:34:39.000Z,21.89
2023-08-11T08:35:39.000Z,21.93
2023-08-11T08:36:40.000Z,21.91
2023-08-11T08:37:40.000Z,21.90
2023-08-11T08:38:40.000Z,21.90
2023-08-11T08:39:40.000Z,21.91
2023-08-11T08:40:40.000Z,21.95
2023-08-11T08:41:44.000Z,21.97
2023-08-11T08:42:41.000Z,22.02
2023-08-11T08:43:40.000Z,22.01
2023-08-11T08:44:41.000Z,21.97
2023-08-11T08:45:42.000Z,22.00
2023-08-11T08:46:40.000Z,22.04
2023-08-11T08:47:41.000Z,22.12
2023-08-11T08:48:49.000Z,22.16
2023-08-11T08:49:42.000Z,22.21
2023-08-11T08:50:40.000Z,22.20
2023-08-11T08:51:40.000Z,22.22
2023-08-11T08:52:41.000Z,22.27
2023-08-11T08:53:39.000Z,22.33
2023-08-11T08:54:40.000Z,22.37
2023-08-11T08:55:40.000Z,22.40
2023-08-11T08:56:40.000Z,22.39
2023-08-11T08:57:40.000Z,22.40
2023-08-11T08:58:41.000Z,22.40
2023-08-11T08:59:40.000Z,22.44
2023-08-11T09:00:40.000Z,22.46
2023-08-11T09:01:40.000Z,22.54
2023-08-11T09:02:41.000Z,22.57
2023-08-11T09:03:42.000Z,22.63
2023-08-11T09:04:40.000Z,22.66
2023-08-11T09:05:39.000Z,22.68
2023-08-11T09:06:40.000Z,22.68
2023-08-11T09:07:40.000Z,22.70
2023-08-11T09:08:39.000Z,22.72
2023-08-11T09:09:39.000Z,22.77
2023-08-11T09:10:39.000Z,22.79
2023-08-11T09:11:41.000Z,22.80
2023-08-11T09:12:39.000Z,22.82
2023-08-11T09:13:42.000Z,22.86
2023-08-11T09:14:41.000Z,22.88
2023-08-11T09:15:39.000Z,22.94
2023-08-11T09:16:40.000Z,22.96
2023-08-11T09:17:40.000Z,22.88
2023-08-11T09:18:42.000Z,22.89
2023-08-11T09:19:41.000Z,22.91
2023-08-11T09:20:39.000Z,22.95
2023-08-11T09:21:40.000Z,22.97
2023-08-11T09:22:40.000Z,23.00
2023-08-11T09:23:42.000Z,22.96
2023-08-11T09:24:44.000Z,22.97
2023-08-11T09:25:39.000Z,23.00
2023-08-11T09:26:41.000Z,23.03
2023-08-11T09:27:39.000Z,23.08
2023-08-11T09:28:40.000Z,23.14
2023-08-11T09:29:39.000Z,23.19
2023-08-11T09:30:40.000Z,23.23
2023-08-11T09:31:39.000Z,23.28
2023-08-11T09:32:39.000Z,23.30
2023-08-11T09:33:39.000Z,23.32
2023-08-11T09:34:42.000Z,23.37
2023-08-11T09:35:40.000Z,23.43
2023-08-11T09:36:40.000Z,23.46
2023-08-11T09:37:42.000Z,23.52
2023-08-11T09:38:46.000Z,23.58
2023-08-11T09:39:41.000Z,23.64
2023-08-11T09:40:40.000Z,23.70
2023-08-11T09:41:44.000Z,23.81
2023-08-11T09:42:40.000Z,23.85
2023-08-11T09:43:46.000Z,23.87
2023-08-11T09:44:41.000Z,23.91
2023-08-11T09:45:39.000Z,23.93
2023-08-11T09:46:40.000Z,23.97
2023-08-11T09:47:39.000Z,23.98
2023-08-11T09:48:39.000Z,24.00
2023-08-11T09:49:40.000Z,24.02
2023-08-11T09:50:40.000Z,24.04
2023-08-11T09:51:41.000Z,24.05
2023-08-11T09:52:41.000Z,24.07
2023-08-11T09:53:44.000Z,24.10
2023-08-11T09:54:43.000Z,24.13
2023-08-11T09:55:40.000Z,24.14
2023-08-11T09:56:41.000Z,24.19
2023-08-11T09:57:40.000Z,24.18
2023-08-11T09:58:43.000Z,24.25
2023-08-11T09:59:43.000Z,24.29
2023-08-11T10:00:40.000Z,24.30
2023-08-11T10:01:42.000Z,24.35
2023-08-11T10:02:51.000Z,24.41
2023-08-11T10:03:42.000Z,24.46
2023-08-11T10:04:46.000Z,24.46
2023-08-11T10:05:42.000Z,24.51
2023-08-11T10:06:45.000Z,24.51
2023-08-11T10:07:43.000Z,24.55
2023-08-11T10:08:41.000Z,24.55
2023-08-11T10:09:43.000Z,24.56
2023-08-11T10:10:40.000Z,24.57
2023-08-11T10:11:42.000Z,24.60
2023-08-11T10:12:46.000Z,24.61
2023-08-11T10:13:41.000Z,24.62
2023-08-11T10:14:40.000Z,24.64
2023-08-11T10:15:40.000Z,24.62
2023-08-11T10:16:39.000Z,24.66
2023-08-11T10:17:40.000Z,24.65
2023-08-11T10:18:41.000Z,24.69
2023-08-11T10:19:40.000Z,24.74
2023-08-11T10:20:40.000Z,24.74
2023-08-11T10:21:39.000Z,24.74
2023-08-11T10:22:40.000Z,24.73
2023-08-11T10:23:39.000Z,24.74
2023-08-11T10:24:41.000Z,24.75
2023-08-11T10:25:39.000Z,24.75
2023-08-11T10:26:39.000Z,24.76
2023-08-11T10:27:41.000Z,24.80
2023-08-11T10:28:39.000Z,24.82
2023-08-11T10:29:42.000Z,24.87
2023-08-11T10:30:42.000Z,24.92
2023-08-11T10:31:52.000Z,24.95
2023-08-11T10:32:40.000Z,25.01
2023-08-11T10:33:47.000Z,25.01
2023-08-11T10:34:39.000Z,25.02
2023-08-11T10:35:59.000Z,25.07
2023-08-11T10:36:40.000Z,25.13
2023-08-11T10:37:39.000Z,25.18
2023-08-11T10:38:39.000Z,25.24
2023-08-11T10:39:39.000Z,25.30
2023-08-11T10:40:40.000Z,25.35
2023-08-11T10:41:44.000Z,25.42
2023-08-11T10:42:41.000Z,25.45
2023-08-11T10:43:48.000Z,25.44
2023-08-11T10:44:42.000Z,25.45
2023-08-11T10:45:39.000Z,25.46
2023-08-11T10:46:39.000Z,25.47
2023-08-11T10:47:49.000Z,25.52
2023-08-11T10:48:39.000Z,25.56
2023-08-11T10:49:42.000Z,25.61
2023-08-11T10:50:39.000Z,25.58
2023-08-11T10:51:41.000Z,25.63
2023-08-11T10:52:40.000Z,25.62
2023-08-11T10:53:39.000Z,25.64
2023-08-11T10:54:48.000Z,25.65
2023-08-11T10:55:39.000Z,25.64
2023-08-11T10:56:41.000Z,25.69
2023-08-11T10:57:39.000Z,25.71
2023-08-11T10:58:42.000Z,25.76
2023-08-11T10:59:39.000Z,25.80
2023-08-11T11:00:40.000Z,25.85
2023-08-11T11:01:44.000Z,25.88
2023-08-11T11:02:39.000Z,25.92
2023-08-11T11:03:41.000Z,25.97
2023-08-11T11:04:40.000Z,25.99
2023-08-11T11:05:41.000Z,26.03
2023-08-11T11:06:42.000Z,26.06
2023-08-11T11:07:40.000Z,26.08
2023-08-11T11:08:39.000Z,26.10
2023-08-11T11:09:40.000Z,26.15
2023-08-11T11:10:41.000Z,26.17
2023-08-11T11:11:40.000Z,26.20
2023-08-11T11:12:39.000Z,26.22
2023-08-11T11:13:41.000Z,26.23
2023-08-11T11:14:40.000Z,26.20
2023-08-11T11:15:39.000Z,26.33
2023-08-11T11:16:40.000Z,26.34
2023-08-11T11:17:41.000Z,26.37
2023-08-11T11:18:45.000Z,26.39
2023-08-11T11:19:40.000Z,26.43
2023-08-11T11:20:40.000Z,26.43
2023-08-11T11:21:40.000Z,26.49
2023-08-11T11:22:46.000Z,26.56
2023-08-11T11:23:44.000Z,26.58
2023-08-11T11:24:41.000Z,26.63
2023-08-11T11:25:39.000Z,26.66
2023-08-11T11:26:42.000Z,26.71
2023-08-11T11:27:40.000Z,26.76
2023-08-11T11:28:40.000Z,26.78
2023-08-11T11:29:39.000Z,26.84
2023-08-11T11:30:40.000Z,26.85
2023-08-11T11:31:40.000Z,26.86
2023-08-11T11:32:41.000Z,26.86
2023-08-11T11:33:40.000Z,26.88
2023-08-11T11:34:39.000Z,26.87
2023-08-11T11:35:40.000Z,26.90
2023-08-11T11:36:40.000Z,26.91
2023-08-11T11:37:40.000Z,26.98
2023-08-11T11:38:40.000Z,26.98
2023-08-11T11:39:41.000Z,27.00
2023-08-11T11:40:40.000Z,27.02
2023-08-11T11:41:40.000Z,27.03
2023-08-11T11:42:39.000Z,27.07
2023-08-11T11:43:40.000Z,27.10
2023-08-11T11:44:41.000Z,27.13
2023-08-11T11:45:40.000Z,27.15
2023-08-11T11:46:40.000Z,27.17
2023-08-11T11:47:40.000Z,27.19
2023-08-11T11:48:44.000Z,27.22
2023-08-11T11:49:40.000Z,27.23
2023-08-11T11:50:40.000Z,27.28
2023-08-11T11:51:41.000Z,27.28
2023-08-11T11:52:46.000Z,27.34
2023-08-11T11:53:41.000Z,27.36
2023-08-11T11:54:39.000Z,27.37
2023-08-11T11:55:45.000Z,27.41
2023-08-11T11:56:40.000Z,27.43
2023-08-11T11:57:39.000Z,27.47
2023-08-11T11:58:40.000Z,27.50
2023-08-11T11:59:41.000Z,27.55
2023-08-11T12:00:40.000Z,27.60
2023-08-11T12:01:41.000Z,27.63
2023-08-11T12:02:40.000Z,27.66
2023-08-11T12:03:40.000Z,27.71
2023-08-11T12:04:42.000Z,27.72
2023-08-11T12:05:41.000Z,27.74
2023-08-11T12:06:40.000Z,27.73
2023-08-11T12:07:40.000Z,27.77
2023-08-11T12:08:42.000Z,27.78
2023-08-11T12:09:48.000Z,27.74
2023-08-11T12:10:40.000Z,27.78
2023-08-11T12:11:40.000Z,27.79
2023-08-11T12:12:40.000Z,27.81
2023-08-11T12:13:42.000Z,27.84
2023-08-11T12:14:40.000Z,27.86
2023-08-11T12:15:40.000Z,27.90
2023-08-11T12:16:41.000Z,27.90
2023-08-11T12:17:40.000Z,27.91
2023-08-11T12:18:41.000Z,27.96
2023-08-11T12:19:40.000Z,27.99
2023-08-11T12:20:40.000Z,28.01
2023-08-11T12:21:42.000Z,28.05
2023-08-11T12:22:40.000Z,28.07
2023-08-11T12:23:40.000Z,28.10
2023-08-11T12:24:40.000Z,28.11
2023-08-11T12:25:40.000Z,28.13
2023-08-11T12:26:40.000Z,28.13
2023-08-11T12:27:40.000Z,28.12
2023-08-11T12:28:40.000Z,28.09
2023-08-11T12:29:40.000Z,28.11
2023-08-11T12:30:40.000Z,28.09
2023-08-11T12:31:40.000Z,28.11
2023-08-11T12:32:40.000Z,28.13
2023-08-11T12:33:40.000Z,28.17
2023-08-11T12:34:40.000Z,28.18
2023-08-11T12:35:40.000Z,28.16
2023-08-11T12:36:40.000Z,28.19
2023-08-11T12:37:39.000Z,28.21
2023-08-11T12:38:39.000Z,28.25
2023-08-11T12:39:39.000Z,28.30
2023-08-11T12:40:41.000Z,28.32
2023-08-11T12:41:39.000Z,28.47
2023-08-11T12:42:39.000Z,28.43
2023-08-11T12:43:39.000Z,28.47
2023-08-11T12:44:40.000Z,28.53
2023-08-11T12:45:41.000Z,28.55
2023-08-11T12:46:40.000Z,28.62
2023-08-11T12:47:39.000Z,28.66
2023-08-11T12:48:39.000Z,28.72
2023-08-11T12:49:40.000Z,28.78
2023-08-11T12:50:40.000Z,28.83
2023-08-11T12:51:40.000Z,28.90
2023-08-11T12:52:40.000Z,28.93